Kimball, MN (55353)

4:27 PM CDT on April 01, 2015 (GMT -0500)
North of Kimball | | Change Station
CLOSE
Current Station
Personal Weather Station
Location: Kimball, MN
Elevation: 1260 ft
Nearby Weather Stations

Elev 1260 ft 45.35 °N, 94.34 °W | Updated 6 seconds ago

Partly Cloudy
Partly Cloudy
72.9 °F
Feels Like 77 °F
N
8.0
Wind Variable Wind from South
Gusts 11.0 mph

Today
High -- | Low -- °F
--% Chance of Precip.
Yesterday
High -- | Low -- °F
Precip. -- in
6:57 AM 7:44 PM
Waxing Gibbous, 94% visible
Pressure 29.47 in
Visibility 10.0 miles
Clouds Clear
Heat Index 77 °F
Dew Point 48 °F
Humidity 41%
Rainfall 0.00 in
Snow Depth Not available.
UV 4 out of 12
Pollen 5.50 out of 12
Air Quality Not available.
Flu Activity Not available.
METAR KMGG 012116Z AUTO 21009G20KT 10SM TS CLR 26/08 A2947 RMK AO2 LTG DSNT NE AND E T02610076

More Conditions Fewer Conditions

Pressure 29.47 in
Visibility 10.0 miles
Clouds Clear
Heat Index 77 °F
Dew Point 48 °F
Humidity 41%
Rainfall 0.00 in
Snow Depth Not available.
UV 4 out of 12
Pollen 5.50 out of 12
Air Quality Not available.
Flu Activity Not available.
METAR KMGG 012116Z AUTO 21009G20KT 10SM TS CLR 26/08 A2947 RMK AO2 LTG DSNT NE AND E T02610076

More Conditions Fewer Conditions

10-Day Weather Forecast

Almanac

Astronomy

Apr. 01, 2015 Rise Set
Actual Time
Civil Twilight
Nautical Twilight
Astronomical Twilight
Moon
Length of Visible Light
Length of Day
Tomorrow will be .
, % of the Moon is Illuminated

Today's Extremes

State Highs State Lows

Community

WunderPhotos

Upload Photos

1,810,089 photos uploaded!

WunderBlogs® & News

Nearby

Air Quality

  Air Quality AQ Index Pollutant
Not available.

Snow Depth

Station Depth Elevation

Earthquake Activity

City Distance Mag. Time & Date
Minimum magnitude displayed is 2.5.

Coastal Water Temperatures

Place Temperature

Stations

Nearby Weather Stations

Station Location Temp. Windchill Dew Point Humidity Wind Precip. Elev Updated Type
                   
Fire Weather Warning
Statement as of 3:50 PM CDT on April 01, 2015

... Red flag warning in effect from 10 am to 7 PM CDT Thursday for
strong winds and low humidity for fire weather zones
048... 049... 054... 055... 056... 057... 058... 065... 066 and 067...

The National Weather Service in Twin Cities/Chanhassen has issued
a red flag warning... which is in effect from 10 am to 7 PM CDT
Thursday. The Fire Weather Watch is no longer in effect.

* Wind... sustained west 20 to 30 mph with gusts to 40 mph Thursday.

* Humidity... falling to around 15 percent Thursday afternoon.

* Impacts... any fires that develop will likely spread rapidly.
Outdoor burning is not recommended.

Precautionary/preparedness actions...

A red flag warning means that critical fire weather conditions
are either occurring now... or will shortly. A combination of
strong winds... low relative humidity... and warm temperatures can
contribute to extreme fire behavior.